createdAt,value
2022-10-22T00:00:55.857Z,100.00
2022-10-22T00:03:22.593Z,100.00
2022-10-22T00:05:49.166Z,100.00
2022-10-22T00:08:15.628Z,100.00
2022-10-22T00:10:42.482Z,100.00
2022-10-22T00:13:09.017Z,100.00
2022-10-22T00:15:35.463Z,100.00
2022-10-22T00:18:01.975Z,100.00
2022-10-22T00:24:03.390Z,100.00
2022-10-22T00:26:29.928Z,100.00
2022-10-22T00:28:56.333Z,100.00
2022-10-22T00:31:22.885Z,100.00
2022-10-22T00:33:49.335Z,100.00
2022-10-22T00:36:16.664Z,100.00
2022-10-22T00:38:43.396Z,100.00
2022-10-22T00:41:09.939Z,100.00
2022-10-22T00:43:53.101Z,100.00
2022-10-22T00:46:19.613Z,100.00
2022-10-22T00:48:46.065Z,100.00
2022-10-22T00:51:13.816Z,100.00
2022-10-22T00:53:45.544Z,100.00
2022-10-22T00:56:12.399Z,100.00
2022-10-22T00:58:45.274Z,100.00
2022-10-22T01:01:16.760Z,100.00
2022-10-22T01:03:43.572Z,100.00
2022-10-22T01:06:14.965Z,100.00
2022-10-22T01:09:03.307Z,100.00
2022-10-22T01:11:34.928Z,100.00
2022-10-22T01:14:01.396Z,100.00
2022-10-22T01:16:43.821Z,100.00
2022-10-22T01:19:19.101Z,100.00
2022-10-22T01:21:51.940Z,100.00
2022-10-22T01:24:32.245Z,100.00
2022-10-22T01:27:20.110Z,100.00
2022-10-22T01:29:59.999Z,100.00
2022-10-22T01:32:29.381Z,100.00
2022-10-22T01:35:01.617Z,100.00
2022-10-22T01:37:34.905Z,100.00
2022-10-22T01:40:02.328Z,100.00
2022-10-22T01:42:29.076Z,100.00
2022-10-22T01:44:55.643Z,100.00
2022-10-22T01:47:43.109Z,100.00
2022-10-22T01:50:30.773Z,100.00
2022-10-22T01:53:03.387Z,100.00
2022-10-22T01:55:54.989Z,100.00
2022-10-22T01:58:58.548Z,100.00
2022-10-22T02:01:38.703Z,100.00
2022-10-22T02:04:40.107Z,100.00
2022-10-22T02:07:08.900Z,100.00
2022-10-22T02:09:36.518Z,100.00
2022-10-22T02:12:06.619Z,100.00
2022-10-22T02:14:36.362Z,100.00
2022-10-22T02:17:04.070Z,100.00
2022-10-22T02:19:52.990Z,100.00
2022-10-22T02:22:20.086Z,100.00
2022-10-22T02:24:48.349Z,100.00
2022-10-22T02:27:29.627Z,100.00
2022-10-22T02:30:00.183Z,100.00
2022-10-22T02:32:34.327Z,100.00
2022-10-22T02:35:03.133Z,100.00
2022-10-22T02:37:30.287Z,100.00
2022-10-22T02:39:56.870Z,100.00
2022-10-22T02:42:25.276Z,100.00
2022-10-22T02:44:52.082Z,100.00
2022-10-22T02:47:18.657Z,100.00
2022-10-22T02:49:45.059Z,100.00
2022-10-22T02:52:11.613Z,100.00
2022-10-22T02:54:38.025Z,100.00
2022-10-22T02:57:04.524Z,100.00
2022-10-22T02:59:30.941Z,100.00
2022-10-22T03:01:57.444Z,100.00
2022-10-22T03:04:23.876Z,100.00
2022-10-22T03:06:50.526Z,100.00
2022-10-22T03:09:20.181Z,100.00
2022-10-22T03:11:49.304Z,100.00
2022-10-22T03:14:15.805Z,100.00
2022-10-22T03:16:42.351Z,100.00
2022-10-22T03:19:08.858Z,100.00
2022-10-22T03:21:45.826Z,100.00
2022-10-22T03:24:17.657Z,100.00
2022-10-22T03:26:48.584Z,100.00
2022-10-22T03:29:15.943Z,100.00
2022-10-22T03:31:42.865Z,100.00
2022-10-22T03:34:11.855Z,100.00
2022-10-22T03:36:38.856Z,100.00
2022-10-22T03:39:06.241Z,100.00
2022-10-22T03:41:33.698Z,100.00
2022-10-22T03:44:01.977Z,100.00
2022-10-22T03:46:28.559Z,100.00
2022-10-22T03:48:54.944Z,100.00
2022-10-22T03:51:21.505Z,100.00
2022-10-22T03:53:47.963Z,100.00
2022-10-22T03:56:14.494Z,100.00
2022-10-22T03:58:41.463Z,100.00
2022-10-22T04:01:10.363Z,100.00
2022-10-22T04:03:36.972Z,100.00
2022-10-22T04:06:04.882Z,100.00
2022-10-22T04:08:31.821Z,100.00
2022-10-22T04:10:58.747Z,100.00
2022-10-22T04:13:25.592Z,100.00
2022-10-22T04:15:52.778Z,100.00
2022-10-22T04:18:20.178Z,100.00
2022-10-22T04:20:47.014Z,100.00
2022-10-22T04:23:13.807Z,100.00
2022-10-22T04:25:40.706Z,100.00
2022-10-22T04:28:08.275Z,100.00
2022-10-22T04:30:36.588Z,100.00
2022-10-22T04:33:03.607Z,100.00
2022-10-22T04:35:30.148Z,100.00
2022-10-22T04:37:56.651Z,100.00
2022-10-22T04:40:23.118Z,100.00
2022-10-22T04:42:49.652Z,100.00
2022-10-22T04:45:16.115Z,100.00
2022-10-22T04:47:42.766Z,100.00
2022-10-22T04:50:09.642Z,100.00
2022-10-22T04:52:36.163Z,100.00
2022-10-22T04:55:02.617Z,100.00
2022-10-22T04:57:32.158Z,100.00
2022-10-22T04:59:58.679Z,100.00
2022-10-22T05:02:25.245Z,100.00
2022-10-22T05:04:51.757Z,100.00
2022-10-22T05:07:18.517Z,100.00
2022-10-22T05:09:44.999Z,100.00
2022-10-22T05:12:11.526Z,100.00
2022-10-22T05:14:42.569Z,100.00
2022-10-22T05:17:11.349Z,100.00
2022-10-22T05:19:38.274Z,100.00
2022-10-22T05:22:05.151Z,100.00
2022-10-22T05:24:33.525Z,100.00
2022-10-22T05:27:00.642Z,100.00
2022-10-22T05:29:27.785Z,100.00
2022-10-22T05:31:54.334Z,100.00
2022-10-22T05:34:20.791Z,100.00
2022-10-22T05:36:47.336Z,100.00
2022-10-22T05:39:13.737Z,100.00
2022-10-22T05:41:40.464Z,100.00
2022-10-22T05:44:07.097Z,100.00
2022-10-22T05:46:36.005Z,100.00
2022-10-22T05:49:04.912Z,100.00
2022-10-22T05:51:33.822Z,100.00
2022-10-22T05:54:06.160Z,100.00
2022-10-22T05:56:33.587Z,100.00
2022-10-22T06:01:35.337Z,100.00
2022-10-22T06:04:04.700Z,100.00
2022-10-22T06:06:40.476Z,100.00
2022-10-22T06:09:14.684Z,100.00
2022-10-22T06:11:41.234Z,100.00
2022-10-22T06:14:07.687Z,100.00
2022-10-22T06:16:34.202Z,100.00
2022-10-22T06:19:02.176Z,100.00
2022-10-22T06:21:29.808Z,100.00
2022-10-22T06:23:57.671Z,100.00
2022-10-22T06:26:24.466Z,100.00
2022-10-22T06:28:51.015Z,100.00
2022-10-22T06:31:17.445Z,100.00
2022-10-22T06:33:44.086Z,100.00
2022-10-22T06:36:13.475Z,100.00
2022-10-22T06:38:41.009Z,100.00
2022-10-22T06:41:13.737Z,100.00
2022-10-22T06:43:41.395Z,100.00
2022-10-22T06:46:14.821Z,100.00
2022-10-22T06:48:49.295Z,100.00
2022-10-22T06:51:15.926Z,100.00
2022-10-22T06:53:42.413Z,100.00
2022-10-22T06:56:13.119Z,100.00
2022-10-22T06:58:40.202Z,100.00
2022-10-22T07:01:12.418Z,100.00
2022-10-22T07:03:40.441Z,100.00
2022-10-22T07:06:12.558Z,100.00
2022-10-22T07:08:39.964Z,100.00
2022-10-22T07:11:15.907Z,100.00
2022-10-22T07:13:42.958Z,100.00
2022-10-22T07:16:10.997Z,100.00
2022-10-22T07:18:39.345Z,100.00
2022-10-22T07:21:07.224Z,100.00
2022-10-22T07:23:33.854Z,100.00
2022-10-22T07:26:02.411Z,100.00
2022-10-22T07:28:30.200Z,100.00
2022-10-22T07:30:56.723Z,100.00
2022-10-22T07:33:23.157Z,100.00
2022-10-22T07:35:49.676Z,100.00
2022-10-22T07:38:16.097Z,100.00
2022-10-22T07:40:42.615Z,100.00
2022-10-22T07:43:09.094Z,100.00
2022-10-22T07:45:35.597Z,100.00
2022-10-22T07:48:02.331Z,100.00
2022-10-22T07:50:28.795Z,100.00
2022-10-22T07:52:57.453Z,100.00
2022-10-22T07:55:24.949Z,100.00
2022-10-22T07:57:51.406Z,100.00
2022-10-22T08:00:20.497Z,100.00
2022-10-22T08:02:49.663Z,100.00
2022-10-22T08:05:16.518Z,100.00
2022-10-22T08:07:43.194Z,100.00
2022-10-22T08:10:10.791Z,100.00
2022-10-22T08:12:38.453Z,100.00
2022-10-22T08:15:05.968Z,100.00
2022-10-22T08:17:32.616Z,100.00
2022-10-22T08:19:59.150Z,100.00
2022-10-22T08:22:25.558Z,100.00
2022-10-22T08:24:53.466Z,100.00
2022-10-22T08:27:20.053Z,100.00
2022-10-22T08:29:46.585Z,100.00
2022-10-22T08:32:13.581Z,100.00
2022-10-22T08:34:40.038Z,100.00
2022-10-22T08:37:08.502Z,100.00
2022-10-22T08:39:35.571Z,100.00
2022-10-22T08:42:17.004Z,100.00
2022-10-22T08:45:19.943Z,100.00
2022-10-22T08:48:05.202Z,100.00
2022-10-22T08:50:45.631Z,99.15
2022-10-22T08:53:41.549Z,99.51
2022-10-22T08:56:08.089Z,100.00
2022-10-22T08:58:47.713Z,100.00
2022-10-22T09:01:23.247Z,99.30
2022-10-22T09:03:58.681Z,96.90
2022-10-22T09:06:28.292Z,98.46
2022-10-22T09:08:58.238Z,96.89
2022-10-22T09:11:27.362Z,97.74
2022-10-22T09:13:55.503Z,95.99
2022-10-22T09:16:31.057Z,95.28
2022-10-22T09:19:16.047Z,97.95
2022-10-22T09:22:12.850Z,97.03
2022-10-22T09:24:46.595Z,98.73
2022-10-22T09:27:23.602Z,97.16
2022-10-22T09:29:50.176Z,98.82
2022-10-22T09:32:17.166Z,98.64
2022-10-22T09:34:49.100Z,99.47
2022-10-22T09:37:24.694Z,99.52
2022-10-22T09:39:52.454Z,99.34
2022-10-22T09:42:20.485Z,99.63
2022-10-22T09:44:59.743Z,97.96
2022-10-22T09:48:00.522Z,98.13
2022-10-22T09:50:29.366Z,96.71
2022-10-22T09:53:11.905Z,95.36
2022-10-22T09:55:40.400Z,97.20
2022-10-22T09:58:11.469Z,94.03
2022-10-22T10:00:44.992Z,95.56
2022-10-22T10:03:18.501Z,94.59
2022-10-22T10:05:48.580Z,92.53
2022-10-22T10:08:17.491Z,94.89
2022-10-22T10:10:59.777Z,95.38
2022-10-22T10:13:38.638Z,94.16
2022-10-22T10:32:30.170Z,93.02
2022-10-22T10:35:15.174Z,91.66
2022-10-22T10:38:18.965Z,89.86
2022-10-22T10:40:55.642Z,90.53
2022-10-22T10:43:45.046Z,89.28
2022-10-22T10:49:09.562Z,84.38
2022-10-22T10:52:17.390Z,83.35
2022-10-22T10:55:02.759Z,81.58
2022-10-22T10:57:46.748Z,82.54
2022-10-22T11:00:20.034Z,80.33
2022-10-22T11:03:07.788Z,81.06
2022-10-22T11:05:39.518Z,80.45
2022-10-22T11:08:43.394Z,80.23
2022-10-22T11:11:26.621Z,80.37
2022-10-22T11:13:57.825Z,76.72
2022-10-22T11:16:37.011Z,79.95
2022-10-22T11:19:53.731Z,79.31
2022-10-22T11:22:28.782Z,80.55
2022-10-22T11:28:43.912Z,79.71
2022-10-22T11:31:14.716Z,79.43
2022-10-22T11:34:33.338Z,81.72
2022-10-22T11:37:06.332Z,80.63
2022-10-22T11:39:48.999Z,81.73
2022-10-22T11:42:31.838Z,81.13
2022-10-22T11:45:06.291Z,80.31
2022-10-22T11:48:07.497Z,80.26
2022-10-22T11:50:56.678Z,81.85
2022-10-22T11:53:26.137Z,82.16
2022-10-22T11:55:55.499Z,81.51
2022-10-22T11:58:28.290Z,81.57
2022-10-22T12:01:17.600Z,80.87
2022-10-22T12:04:21.900Z,80.09
2022-10-22T12:07:02.005Z,79.04
2022-10-22T12:09:32.754Z,77.57
2022-10-22T12:12:15.397Z,76.25
2022-10-22T12:14:59.361Z,75.07
2022-10-22T12:17:28.577Z,73.86
2022-10-22T12:20:25.254Z,74.02
2022-10-22T12:22:53.050Z,76.96
2022-10-22T12:25:23.749Z,76.94
2022-10-22T12:27:53.450Z,76.07
2022-10-22T12:30:23.652Z,77.41
2022-10-22T12:33:00.453Z,76.68
2022-10-22T12:35:30.210Z,76.30
2022-10-22T12:38:00.397Z,78.24
2022-10-22T12:40:33.721Z,80.47
2022-10-22T12:43:12.618Z,76.98
2022-10-22T12:45:40.945Z,77.16
2022-10-22T12:48:34.377Z,76.24
2022-10-22T12:51:03.983Z,77.87
2022-10-22T12:53:37.716Z,79.14
2022-10-22T12:56:06.827Z,76.53
2022-10-22T12:58:41.053Z,77.15
2022-10-22T13:01:12.187Z,79.27
2022-10-22T13:04:16.916Z,80.09
2022-10-22T13:06:49.636Z,79.31
2022-10-22T13:09:25.159Z,79.20
2022-10-22T13:12:04.658Z,81.77
2022-10-22T13:14:32.407Z,82.66
2022-10-22T13:17:11.157Z,83.52
2022-10-22T13:19:54.716Z,80.71
2022-10-22T13:22:24.244Z,81.09
2022-10-22T13:24:51.424Z,79.72
2022-10-22T13:27:18.252Z,79.37
2022-10-22T13:29:45.243Z,81.63
2022-10-22T13:32:41.738Z,81.36
2022-10-22T13:35:15.927Z,82.37
2022-10-22T13:37:42.678Z,76.57
2022-10-22T13:40:14.044Z,79.17
2022-10-22T13:42:40.883Z,80.97
2022-10-22T13:45:07.898Z,78.48
2022-10-22T13:47:34.644Z,80.95
2022-10-22T13:50:12.650Z,78.98
2022-10-22T13:52:43.416Z,81.18
2022-10-22T13:55:19.823Z,83.59
2022-10-22T13:57:47.251Z,85.66
2022-10-22T14:00:23.796Z,86.97
2022-10-22T14:02:54.011Z,82.88
2022-10-22T14:05:21.291Z,85.18
2022-10-22T14:07:48.714Z,85.47
2022-10-22T14:10:20.694Z,84.67
2022-10-22T14:12:52.396Z,87.41
2022-10-22T14:15:24.066Z,87.96
2022-10-22T14:17:56.231Z,89.25
2022-10-22T14:20:26.842Z,90.65
2022-10-22T14:22:53.639Z,80.95
2022-10-22T14:25:22.819Z,82.78
2022-10-22T14:27:49.912Z,84.59
2022-10-22T14:30:19.334Z,83.83
2022-10-22T14:32:46.376Z,85.64
2022-10-22T14:35:15.277Z,86.05
2022-10-22T14:37:42.156Z,85.81
2022-10-22T14:40:12.449Z,89.17
2022-10-22T14:42:42.356Z,89.95
2022-10-22T14:45:21.813Z,90.16
2022-10-22T14:47:49.983Z,93.39
2022-10-22T14:50:17.960Z,93.14
2022-10-22T14:52:44.796Z,92.15
2022-10-22T14:55:12.966Z,93.60
2022-10-22T14:57:40.382Z,94.33
2022-10-22T15:00:10.111Z,94.55
2022-10-22T15:02:36.890Z,94.40
2022-10-22T15:05:04.045Z,94.55
2022-10-22T15:07:30.611Z,91.68
2022-10-22T15:09:57.029Z,92.63
2022-10-22T15:12:23.531Z,93.42
2022-10-22T15:14:50.173Z,94.62
2022-10-22T15:17:17.944Z,95.35
2022-10-22T15:19:44.810Z,95.74
2022-10-22T15:22:12.627Z,96.02
2022-10-22T15:24:39.887Z,95.38
2022-10-22T15:27:06.771Z,95.17
2022-10-22T15:29:33.466Z,96.21
2022-10-22T15:32:03.138Z,97.60
2022-10-22T15:34:32.545Z,97.44
2022-10-22T15:37:01.047Z,98.05
2022-10-22T15:39:28.074Z,97.86
2022-10-22T15:41:54.996Z,98.58
2022-10-22T15:44:23.698Z,99.51
2022-10-22T15:49:27.655Z,99.88
2022-10-22T15:51:54.814Z,100.00
2022-10-22T15:54:24.627Z,100.00
2022-10-22T15:56:51.321Z,100.00
2022-10-22T15:59:18.395Z,100.00
2022-10-22T16:01:45.139Z,100.00
2022-10-22T16:04:11.955Z,100.00
2022-10-22T16:06:41.840Z,100.00
2022-10-22T16:09:10.911Z,100.00
2022-10-22T16:11:38.644Z,100.00
2022-10-22T16:14:05.864Z,100.00
2022-10-22T16:16:34.628Z,100.00
2022-10-22T16:19:02.646Z,100.00
2022-10-22T16:21:29.250Z,100.00
2022-10-22T16:23:55.673Z,100.00
2022-10-22T16:26:22.205Z,100.00
2022-10-22T16:28:48.619Z,100.00
2022-10-22T16:31:17.906Z,100.00
2022-10-22T16:33:47.905Z,100.00
2022-10-22T16:36:18.874Z,100.00
2022-10-22T16:38:46.798Z,100.00
2022-10-22T16:41:16.270Z,100.00
2022-10-22T16:43:44.571Z,100.00
2022-10-22T16:46:11.842Z,100.00
2022-10-22T16:48:40.600Z,100.00
2022-10-22T16:51:09.231Z,100.00
2022-10-22T16:53:36.317Z,100.00
2022-10-22T16:56:03.385Z,100.00
2022-10-22T16:58:30.316Z,100.00
2022-10-22T17:00:56.869Z,100.00
2022-10-22T17:03:25.973Z,100.00
2022-10-22T17:05:54.251Z,100.00
2022-10-22T17:08:20.661Z,100.00
2022-10-22T17:10:47.344Z,100.00
2022-10-22T17:13:13.827Z,100.00
2022-10-22T17:15:41.053Z,100.00
2022-10-22T17:18:07.575Z,100.00
2022-10-22T17:20:34.091Z,100.00
2022-10-22T17:23:00.597Z,100.00
2022-10-22T17:25:42.984Z,100.00
2022-10-22T17:28:13.153Z,100.00
2022-10-22T17:30:41.025Z,100.00
2022-10-22T17:33:08.285Z,100.00
2022-10-22T17:35:39.069Z,100.00
2022-10-22T17:38:06.476Z,100.00
2022-10-22T17:40:35.232Z,100.00
2022-10-22T17:43:02.068Z,100.00
2022-10-22T17:45:28.719Z,100.00
2022-10-22T17:47:57.190Z,100.00
2022-10-22T17:50:23.710Z,100.00
2022-10-22T17:52:50.606Z,100.00
2022-10-22T17:55:17.194Z,100.00
2022-10-22T17:57:43.725Z,100.00
2022-10-22T18:00:10.520Z,100.00
2022-10-22T18:02:37.637Z,100.00
2022-10-22T18:05:04.374Z,100.00
2022-10-22T18:07:31.129Z,100.00
2022-10-22T18:09:57.667Z,100.00
2022-10-22T18:12:24.082Z,100.00
2022-10-22T18:14:50.605Z,100.00
2022-10-22T18:17:17.036Z,100.00
2022-10-22T18:19:43.547Z,100.00
2022-10-22T18:22:10.049Z,100.00
2022-10-22T18:24:36.671Z,100.00
2022-10-22T18:27:03.984Z,100.00
2022-10-22T18:29:30.622Z,100.00
2022-10-22T18:31:57.169Z,100.00
2022-10-22T18:34:24.087Z,100.00
2022-10-22T18:36:50.755Z,100.00
2022-10-22T18:39:17.439Z,100.00
2022-10-22T18:41:44.127Z,100.00
2022-10-22T18:44:12.969Z,100.00
2022-10-22T18:46:40.176Z,100.00
2022-10-22T18:49:07.308Z,100.00
2022-10-22T18:51:34.838Z,100.00
2022-10-22T18:54:21.644Z,100.00
2022-10-22T18:56:49.282Z,100.00
2022-10-22T18:59:17.873Z,100.00
2022-10-22T19:01:44.614Z,100.00
2022-10-22T19:04:12.377Z,100.00
2022-10-22T19:06:42.979Z,100.00
2022-10-22T19:09:12.208Z,100.00
2022-10-22T19:11:38.868Z,100.00
2022-10-22T19:14:05.360Z,100.00
2022-10-22T19:16:32.002Z,100.00
2022-10-22T19:19:05.483Z,100.00
2022-10-22T19:21:32.932Z,100.00
2022-10-22T19:24:01.294Z,100.00
2022-10-22T19:26:30.175Z,100.00
2022-10-22T19:28:57.768Z,100.00
2022-10-22T19:31:26.655Z,100.00
2022-10-22T19:33:56.509Z,100.00
2022-10-22T19:36:25.228Z,100.00
2022-10-22T19:38:51.990Z,100.00
2022-10-22T19:41:21.176Z,100.00
2022-10-22T19:43:50.991Z,100.00
2022-10-22T19:46:18.352Z,100.00
2022-10-22T19:51:19.778Z,100.00
2022-10-22T19:53:47.091Z,100.00
2022-10-22T19:56:20.460Z,100.00
2022-10-22T19:58:47.590Z,100.00
2022-10-22T20:01:15.880Z,100.00
2022-10-22T20:03:43.026Z,100.00
2022-10-22T20:06:11.493Z,100.00
2022-10-22T20:08:38.910Z,100.00
2022-10-22T20:11:17.172Z,100.00
2022-10-22T20:13:46.618Z,100.00
2022-10-22T20:16:18.000Z,100.00
2022-10-22T20:18:45.108Z,100.00
2022-10-22T20:21:16.307Z,100.00
2022-10-22T20:23:43.221Z,100.00
2022-10-22T20:26:09.872Z,100.00
2022-10-22T20:28:37.586Z,100.00
2022-10-22T20:31:12.856Z,100.00
2022-10-22T20:33:39.370Z,100.00
2022-10-22T20:36:07.214Z,100.00
2022-10-22T20:38:33.919Z,100.00
2022-10-22T20:41:21.048Z,100.00
2022-10-22T20:43:48.855Z,100.00
2022-10-22T20:46:27.941Z,100.00
2022-10-22T20:49:00.170Z,100.00
2022-10-22T20:51:28.219Z,100.00
2022-10-22T20:53:54.737Z,100.00
2022-10-22T20:56:21.389Z,100.00
2022-10-22T20:58:49.070Z,100.00
2022-10-22T21:01:24.126Z,100.00
2022-10-22T21:03:52.711Z,100.00
2022-10-22T21:06:22.906Z,100.00
2022-10-22T21:08:50.409Z,100.00
2022-10-22T21:11:17.572Z,100.00
2022-10-22T21:13:44.291Z,100.00
2022-10-22T21:16:12.656Z,100.00
2022-10-22T21:18:39.528Z,100.00
2022-10-22T21:21:07.828Z,100.00
2022-10-22T21:23:35.755Z,100.00
2022-10-22T21:26:02.987Z,100.00
2022-10-22T21:30:57.234Z,100.00
2022-10-22T21:33:23.622Z,100.00
2022-10-22T21:35:55.007Z,100.00
2022-10-22T21:38:23.206Z,100.00
2022-10-22T21:40:50.487Z,100.00
2022-10-22T21:43:17.678Z,100.00
2022-10-22T21:45:44.681Z,100.00
2022-10-22T21:48:15.874Z,100.00
2022-10-22T21:50:43.931Z,100.00
2022-10-22T21:53:12.048Z,100.00
2022-10-22T21:55:41.511Z,100.00
2022-10-22T21:58:08.706Z,100.00
2022-10-22T22:17:21.380Z,100.00
2022-10-22T22:19:47.947Z,100.00
2022-10-22T22:22:14.411Z,100.00
2022-10-22T22:24:40.967Z,100.00
2022-10-22T22:27:07.471Z,100.00
2022-10-22T22:29:34.744Z,100.00
2022-10-22T22:32:01.387Z,100.00
2022-10-22T22:34:27.812Z,100.00
2022-10-22T22:36:54.453Z,100.00
2022-10-22T22:39:23.705Z,100.00
2022-10-22T22:41:50.879Z,100.00
2022-10-22T22:44:17.534Z,100.00
2022-10-22T22:46:44.073Z,100.00
2022-10-22T22:49:10.557Z,100.00
2022-10-22T22:51:37.076Z,100.00
2022-10-22T22:54:03.535Z,100.00
2022-10-22T22:56:32.705Z,100.00
2022-10-22T22:58:59.407Z,100.00
2022-10-22T23:01:37.786Z,100.00
2022-10-22T23:04:13.640Z,100.00
2022-10-22T23:06:40.327Z,100.00
2022-10-22T23:09:09.504Z,100.00
2022-10-22T23:11:36.446Z,100.00
2022-10-22T23:14:05.320Z,100.00
2022-10-22T23:16:34.364Z,100.00
2022-10-22T23:19:01.524Z,100.00
2022-10-22T23:21:30.940Z,100.00
2022-10-22T23:24:00.980Z,100.00
2022-10-22T23:26:32.340Z,100.00
2022-10-22T23:29:04.261Z,100.00
2022-10-22T23:31:31.170Z,100.00
2022-10-22T23:33:58.538Z,100.00
2022-10-22T23:36:25.793Z,100.00
2022-10-22T23:38:52.528Z,100.00
2022-10-22T23:41:19.028Z,100.00
2022-10-22T23:43:45.617Z,100.00
2022-10-22T23:46:13.001Z,100.00
2022-10-22T23:48:40.236Z,100.00
2022-10-22T23:51:11.810Z,100.00
2022-10-22T23:53:38.567Z,100.00
2022-10-22T23:56:10.710Z,100.00
2022-10-22T23:58:39.211Z,100.00
